Time;durP1;ratioP1;P1;durP2;ratioP2;P2;SDS_P1;SDS_P2;PMS_P1;PMS_P2;Temp;Humidity;BMP_temperature;BMP_pressure;BME280_temperature;BME280_humidity;BME280_pressure;Samples;Min_cycle;Max_cycle;Signal;HPM_P1;HPM_P2
2021/07/30 00:00:15;;;;;;;11.77;3.15;;;16.00;91.40;;;;;;5051660;28;20032;-55
2021/07/30 00:02:41;;;;;;;7.25;3.33;;;16.00;91.40;;;;;;5051784;28;20433;-55
2021/07/30 00:05:07;;;;;;;9.95;2.97;;;16.00;91.50;;;;;;5051049;28;20033;-55
2021/07/30 00:07:32;;;;;;;5.70;2.90;;;16.00;91.60;;;;;;5051434;28;20375;-55
2021/07/30 00:09:58;;;;;;;9.32;3.30;;;15.90;91.70;;;;;;5051561;28;20036;-55
2021/07/30 00:12:23;;;;;;;7.95;3.10;;;15.90;91.70;;;;;;5051488;28;20152;-55
2021/07/30 00:14:49;;;;;;;7.25;3.22;;;15.90;91.90;;;;;;5050706;28;20040;-55
2021/07/30 00:17:14;;;;;;;8.80;3.60;;;15.90;92.10;;;;;;5051444;28;20033;-55
2021/07/30 00:19:39;;;;;;;5.13;2.80;;;15.80;92.20;;;;;;5051322;28;20037;-55
2021/07/30 00:22:05;;;;;;;5.93;3.30;;;15.90;92.20;;;;;;5051658;28;20029;-55
2021/07/30 00:24:30;;;;;;;6.55;3.03;;;15.90;92.60;;;;;;5050825;28;20378;-55
2021/07/30 00:26:56;;;;;;;6.18;3.17;;;15.90;92.50;;;;;;5051275;28;20108;-55
2021/07/30 00:29:21;;;;;;;9.90;3.30;;;15.80;92.60;;;;;;5051452;28;20033;-55
2021/07/30 00:31:47;;;;;;;12.60;3.22;;;15.80;92.70;;;;;;5051139;28;20457;-55
2021/07/30 00:34:12;;;;;;;11.15;3.78;;;15.80;92.80;;;;;;5049117;28;20075;-55
2021/07/30 00:36:38;;;;;;;8.07;3.22;;;15.80;92.90;;;;;;5049579;28;20115;-55
2021/07/30 00:39:03;;;;;;;8.18;3.20;;;15.80;93.10;;;;;;5051271;28;20021;-55
2021/07/30 00:41:35;;;;;;;8.55;3.15;;;15.80;93.10;;;;;;5050880;28;20029;-55
2021/07/30 00:44:01;;;;;;;13.23;4.10;;;15.70;93.30;;;;;;5049759;28;20091;-55
2021/07/30 00:46:27;;;;;;;11.35;3.15;;;15.60;93.80;;;;;;5050891;28;20021;-53
2021/07/30 00:48:53;;;;;;;7.55;3.20;;;15.60;94.00;;;;;;5050803;28;20100;-55
2021/07/30 00:51:18;;;;;;;9.80;3.63;;;15.60;94.20;;;;;;5050926;28;20029;-55
2021/07/30 00:53:44;;;;;;;9.45;3.25;;;15.50;94.40;;;;;;5050098;28;20040;-55
2021/07/30 00:56:10;;;;;;;8.50;3.40;;;15.50;94.60;;;;;;5049291;28;20561;-56
2021/07/30 00:58:35;;;;;;;7.15;3.75;;;15.50;94.80;;;;;;5050520;28;20419;-55
2021/07/30 01:01:03;;;;;;;6.00;3.15;;;15.50;95.00;;;;;;5050683;28;20036;-55
2021/07/30 01:03:29;;;;;;;6.70;2.80;;;15.50;95.30;;;;;;5049856;28;20104;-55
2021/07/30 01:05:55;;;;;;;8.88;3.58;;;15.40;95.40;;;;;;5050390;28;20167;-55
2021/07/30 01:08:21;;;;;;;8.70;3.42;;;15.50;95.40;;;;;;5050470;28;20036;-55
2021/07/30 01:10:46;;;;;;;10.10;3.28;;;15.50;95.60;;;;;;5050317;28;20036;-55
2021/07/30 01:13:12;;;;;;;9.32;3.38;;;15.40;95.80;;;;;;5050273;28;20104;-55
2021/07/30 01:15:37;;;;;;;13.40;4.28;;;15.50;95.90;;;;;;5050029;28;20669;-56
2021/07/30 01:18:03;;;;;;;7.88;3.58;;;15.40;95.90;;;;;;5050399;28;20061;-54
2021/07/30 01:20:29;;;;;;;10.63;3.60;;;15.50;96.00;;;;;;5050399;28;20024;-55
2021/07/30 01:22:57;;;;;;;12.57;4.03;;;15.50;96.20;;;;;;5050345;28;20558;-55
2021/07/30 01:25:25;;;;;;;9.50;3.08;;;15.40;96.30;;;;;;5049555;28;20025;-55
2021/07/30 01:27:51;;;;;;;6.13;2.92;;;15.40;96.50;;;;;;5049127;28;20035;-56
2021/07/30 01:30:18;;;;;;;8.20;3.55;;;15.40;96.60;;;;;;5050059;28;20360;-55
2021/07/30 01:32:44;;;;;;;9.32;3.70;;;15.40;96.90;;;;;;5050298;28;20025;-55
2021/07/30 01:35:10;;;;;;;7.47;3.38;;;15.40;97.10;;;;;;5049354;28;20110;-55
2021/07/30 01:37:36;;;;;;;6.65;3.35;;;15.30;97.30;;;;;;5049925;28;20515;-55
2021/07/30 01:40:01;;;;;;;7.45;3.53;;;15.30;97.80;;;;;;5048605;28;20498;-55
2021/07/30 01:42:27;;;;;;;7.55;3.38;;;15.20;98.00;;;;;;5049735;28;20575;-55
2021/07/30 01:44:53;;;;;;;11.80;4.05;;;15.10;98.40;;;;;;5049405;28;20047;-53
2021/07/30 01:47:20;;;;;;;8.43;3.53;;;15.00;99.00;;;;;;5049864;28;20021;-53
2021/07/30 01:49:46;;;;;;;5.40;3.47;;;15.00;99.50;;;;;;5049587;28;20035;-52
2021/07/30 01:52:11;;;;;;;9.65;3.33;;;14.90;99.90;;;;;;5049555;28;20095;-55
2021/07/30 01:54:38;;;;;;;9.00;4.20;;;14.90;99.90;;;;;;5048250;28;20029;-55
2021/07/30 01:57:04;;;;;;;8.00;3.63;;;14.80;99.90;;;;;;5049303;28;20044;-55
2021/07/30 01:59:30;;;;;;;22.65;5.13;;;14.80;99.90;;;;;;5049552;28;20394;-55
2021/07/30 02:01:55;;;;;;;9.63;3.80;;;14.80;99.90;;;;;;5049686;28;20474;-55
2021/07/30 02:04:21;;;;;;;6.93;3.53;;;14.70;99.90;;;;;;5048705;28;20055;-55
2021/07/30 02:06:47;;;;;;;12.07;4.15;;;14.80;99.90;;;;;;5049395;28;20029;-55
2021/07/30 02:09:13;;;;;;;8.82;4.00;;;14.80;99.90;;;;;;5049417;28;20029;-55
2021/07/30 02:11:42;;;;;;;8.52;4.22;;;14.70;99.90;;;;;;5049527;28;20110;-55
2021/07/30 02:14:18;;;;;;;11.38;4.35;;;14.70;99.90;;;;;;5048702;28;20024;-55
2021/07/30 02:16:49;;;;;;;5.78;3.22;;;14.70;99.90;;;;;;5049083;28;20021;-55
2021/07/30 02:19:16;;;;;;;19.88;4.40;;;14.70;99.90;;;;;;5049095;28;20029;-55
2021/07/30 02:21:42;;;;;;;9.52;3.60;;;14.70;99.90;;;;;;5049003;28;20133;-55
2021/07/30 02:24:08;;;;;;;7.90;3.80;;;14.60;99.90;;;;;;5048444;28;20471;-55
2021/07/30 02:26:34;;;;;;;6.40;3.78;;;14.70;99.90;;;;;;5049044;28;20379;-55
2021/07/30 02:28:59;;;;;;;9.05;4.15;;;14.60;99.90;;;;;;5048899;28;20108;-55
2021/07/30 02:31:25;;;;;;;8.75;4.07;;;14.60;99.90;;;;;;5048898;28;20032;-55
2021/07/30 02:33:51;;;;;;;12.05;4.13;;;14.60;99.90;;;;;;5048286;28;20029;-55
2021/07/30 02:36:17;;;;;;;8.27;3.88;;;14.60;99.90;;;;;;5048738;28;20036;-55
2021/07/30 02:38:42;;;;;;;13.35;4.65;;;14.50;99.90;;;;;;5048883;28;20027;-55
2021/07/30 02:41:08;;;;;;;9.50;4.40;;;14.60;99.90;;;;;;5049143;28;20044;-55
2021/07/30 02:43:33;;;;;;;9.60;4.45;;;14.60;99.90;;;;;;5048534;28;20498;-55
2021/07/30 02:45:59;;;;;;;9.27;3.65;;;14.60;99.90;;;;;;5049006;28;20029;-55
2021/07/30 02:48:25;;;;;;;13.63;4.43;;;14.60;99.90;;;;;;5048781;28;20024;-55
2021/07/30 02:50:51;;;;;;;11.52;3.90;;;14.60;99.90;;;;;;5048630;28;20039;-55
2021/07/30 02:53:17;;;;;;;7.60;3.75;;;14.50;99.90;;;;;;5048190;28;20033;-55
2021/07/30 02:55:42;;;;;;;11.13;4.00;;;14.60;99.90;;;;;;5048608;28;20036;-53
2021/07/30 02:58:08;;;;;;;9.63;4.95;;;14.60;99.90;;;;;;5048577;28;20025;-52
2021/07/30 03:00:34;;;;;;;9.45;4.63;;;14.60;99.90;;;;;;5048969;28;20021;-52
2021/07/30 03:02:59;;;;;;;13.52;4.47;;;14.60;99.90;;;;;;5048650;28;20028;-52
2021/07/30 03:05:25;;;;;;;10.45;5.03;;;14.50;99.90;;;;;;5047817;28;20029;-52
2021/07/30 03:07:50;;;;;;;8.80;4.45;;;14.40;99.90;;;;;;5048376;28;20044;-52
2021/07/30 03:10:16;;;;;;;8.90;4.93;;;14.40;99.90;;;;;;5048571;28;20025;-52
2021/07/30 03:12:41;;;;;;;8.60;4.65;;;14.40;99.90;;;;;;5048345;28;20033;-52
2021/07/30 03:15:07;;;;;;;12.02;4.38;;;14.40;99.90;;;;;;5047735;28;20029;-52
2021/07/30 03:17:32;;;;;;;9.32;4.50;;;14.40;99.90;;;;;;5048196;28;20025;-52
2021/07/30 03:19:58;;;;;;;12.02;4.95;;;14.40;99.90;;;;;;5048163;28;20033;-52
2021/07/30 03:22:23;;;;;;;8.60;4.57;;;14.40;99.90;;;;;;5048242;28;20506;-52
2021/07/30 03:24:49;;;;;;;10.20;4.22;;;14.40;99.90;;;;;;5047613;28;20100;-53
2021/07/30 03:27:14;;;;;;;14.63;5.18;;;14.40;99.90;;;;;;5046905;28;20575;-52
2021/07/30 03:29:40;;;;;;;7.82;4.03;;;14.40;99.90;;;;;;5048256;28;20036;-52
2021/07/30 03:32:06;;;;;;;9.07;4.68;;;14.40;99.90;;;;;;5048351;28;20032;-55
2021/07/30 03:34:32;;;;;;;9.82;4.47;;;14.40;99.90;;;;;;5047554;28;20057;-55
2021/07/30 03:36:59;;;;;;;7.53;4.15;;;14.40;99.90;;;;;;5047967;28;20052;-55
2021/07/30 03:39:24;;;;;;;12.52;4.75;;;14.40;99.90;;;;;;5048161;28;20017;-55
2021/07/30 03:41:50;;;;;;;9.23;4.68;;;14.40;99.90;;;;;;5048451;28;20036;-55
2021/07/30 03:44:15;;;;;;;10.98;4.57;;;14.40;99.90;;;;;;5047621;28;20036;-55
2021/07/30 03:46:41;;;;;;;12.73;4.78;;;14.40;99.90;;;;;;5048129;28;20475;-55
2021/07/30 03:49:06;;;;;;;13.85;4.40;;;14.40;99.90;;;;;;5047943;28;20029;-56
2021/07/30 03:51:32;;;;;;;8.68;4.85;;;14.30;99.90;;;;;;5047972;28;20033;-53
2021/07/30 03:53:57;;;;;;;9.20;4.57;;;14.30;99.90;;;;;;5047384;28;20037;-53
2021/07/30 03:56:23;;;;;;;10.32;4.85;;;14.30;99.90;;;;;;5047872;28;20021;-53
2021/07/30 03:58:49;;;;;;;19.20;5.13;;;14.30;99.90;;;;;;5047965;28;20071;-53
2021/07/30 04:01:14;;;;;;;9.82;4.45;;;14.20;99.90;;;;;;5047835;28;20048;-53
2021/07/30 04:03:40;;;;;;;10.75;4.38;;;14.20;99.90;;;;;;5047274;28;20404;-53
2021/07/30 04:06:06;;;;;;;19.10;4.80;;;14.20;99.90;;;;;;5047815;28;20021;-52
2021/07/30 04:08:35;;;;;;;10.30;4.25;;;14.30;99.90;;;;;;5047901;28;20070;-52
2021/07/30 04:11:02;;;;;;;6.90;4.25;;;14.30;99.90;;;;;;5048018;28;20044;-53
2021/07/30 04:13:28;;;;;;;12.20;4.95;;;14.30;99.90;;;;;;5047247;28;20082;-53
2021/07/30 04:15:54;;;;;;;13.43;4.93;;;14.30;99.90;;;;;;5047454;28;20033;-52
2021/07/30 04:18:20;;;;;;;5.85;4.22;;;14.40;99.90;;;;;;5048296;28;20029;-52
2021/07/30 04:20:45;;;;;;;10.73;4.70;;;14.40;99.90;;;;;;5050245;28;20356;-53
2021/07/30 04:23:11;;;;;;;7.05;4.50;;;14.50;99.90;;;;;;5051136;28;20033;-53
2021/07/30 04:25:40;;;;;;;12.13;4.82;;;14.50;99.90;;;;;;5051219;28;20352;-52
2021/07/30 04:28:06;;;;;;;11.05;4.35;;;14.50;99.90;;;;;;5051308;28;20128;-52
2021/07/30 04:30:32;;;;;;;12.75;4.85;;;14.60;99.90;;;;;;5051239;28;20108;-55
2021/07/30 04:32:57;;;;;;;12.38;4.63;;;14.50;99.90;;;;;;5051102;28;20025;-55
2021/07/30 04:35:23;;;;;;;11.73;4.40;;;14.50;99.90;;;;;;5050553;28;20096;-55
2021/07/30 04:37:48;;;;;;;7.03;4.25;;;14.60;99.90;;;;;;5050922;28;20086;-55
2021/07/30 04:40:14;;;;;;;13.73;5.40;;;14.50;99.90;;;;;;5051066;28;20299;-55
2021/07/30 04:42:39;;;;;;;7.22;4.55;;;14.60;99.90;;;;;;5050880;28;20067;-55
2021/07/30 04:45:05;;;;;;;12.93;5.22;;;14.60;99.90;;;;;;5050180;28;20112;-55
2021/07/30 04:47:31;;;;;;;9.05;4.68;;;14.70;99.90;;;;;;5050794;28;20116;-55
2021/07/30 04:49:57;;;;;;;9.73;4.50;;;14.70;99.90;;;;;;5050650;28;20047;-55
2021/07/30 04:52:22;;;;;;;12.57;4.75;;;14.70;99.90;;;;;;5051000;28;20032;-55
2021/07/30 04:54:48;;;;;;;14.10;4.72;;;14.80;99.90;;;;;;5049949;28;20041;-55
2021/07/30 04:57:13;;;;;;;9.07;5.00;;;14.90;99.90;;;;;;5050414;28;20039;-55
2021/07/30 04:59:39;;;;;;;15.15;4.85;;;14.90;99.90;;;;;;5050414;28;20025;-53
2021/07/30 05:02:09;;;;;;;9.55;4.32;;;14.90;99.90;;;;;;5050551;28;20052;-53
2021/07/30 05:04:35;;;;;;;11.77;5.00;;;15.00;99.90;;;;;;5049756;28;20021;-52
2021/07/30 05:07:00;;;;;;;9.93;4.32;;;15.00;99.90;;;;;;5050269;28;20041;-52
2021/07/30 05:09:26;;;;;;;9.98;4.68;;;15.10;99.90;;;;;;5050474;28;20116;-52
2021/07/30 05:11:51;;;;;;;11.45;5.25;;;15.10;99.90;;;;;;5050303;28;20033;-52
2021/07/30 05:14:16;;;;;;;10.73;4.88;;;15.20;99.90;;;;;;5049551;28;20040;-52
2021/07/30 05:16:42;;;;;;;8.50;4.40;;;15.20;99.90;;;;;;5050119;28;20029;-52
2021/07/30 05:19:07;;;;;;;9.35;4.45;;;15.30;99.90;;;;;;5050208;28;20070;-52
2021/07/30 05:21:33;;;;;;;11.63;4.80;;;15.30;99.90;;;;;;5050195;28;20541;-52
2021/07/30 05:23:58;;;;;;;8.80;4.65;;;15.30;99.90;;;;;;5048009;28;20533;-52
2021/07/30 05:26:24;;;;;;;6.78;4.35;;;15.40;99.90;;;;;;5049966;28;20021;-52
2021/07/30 05:28:50;;;;;;;6.90;3.97;;;15.40;99.90;;;;;;5050008;28;20119;-52
2021/07/30 05:31:17;;;;;;;12.20;4.40;;;15.50;99.90;;;;;;5048703;28;20029;-52
2021/07/30 05:33:42;;;;;;;18.08;5.05;;;15.60;99.90;;;;;;5049168;28;20113;-52
2021/07/30 05:36:12;;;;;;;12.82;4.35;;;15.60;99.90;;;;;;5049751;28;20104;-52
2021/07/30 05:38:37;;;;;;;7.13;4.60;;;15.70;99.90;;;;;;5049788;28;20033;-52
2021/07/30 05:41:03;;;;;;;8.00;4.55;;;15.70;99.90;;;;;;5049756;28;20202;-52
2021/07/30 05:43:28;;;;;;;14.02;4.45;;;15.80;99.90;;;;;;5047785;28;20017;-53
2021/07/30 05:45:54;;;;;;;8.32;4.00;;;15.80;99.90;;;;;;5049970;28;20510;-53
2021/07/30 05:48:22;;;;;;;7.63;4.20;;;15.90;99.90;;;;;;5049470;28;20025;-53
2021/07/30 05:50:48;;;;;;;12.23;4.00;;;16.00;99.90;;;;;;5049544;28;20382;-52
2021/07/30 05:53:14;;;;;;;9.05;4.00;;;16.00;99.90;;;;;;5049052;28;20021;-52
2021/07/30 05:55:39;;;;;;;10.27;4.70;;;16.10;99.90;;;;;;5049404;28;20036;-53
2021/07/30 05:58:04;;;;;;;9.00;4.03;;;16.10;99.90;;;;;;5049470;28;20152;-52
2021/07/30 06:00:30;;;;;;;9.88;3.67;;;16.20;99.90;;;;;;5049500;28;20500;-52
2021/07/30 06:02:55;;;;;;;11.93;4.68;;;16.30;99.90;;;;;;5049819;28;20024;-53
2021/07/30 06:05:21;;;;;;;8.40;4.30;;;16.40;99.90;;;;;;5048722;28;20105;-53
2021/07/30 06:07:47;;;;;;;6.93;3.55;;;16.40;99.90;;;;;;5047955;28;20020;-53
2021/07/30 06:10:12;;;;;;;12.82;4.05;;;16.50;99.90;;;;;;5048177;28;20079;-52
2021/07/30 06:12:38;;;;;;;6.90;3.58;;;16.50;99.90;;;;;;5049215;28;20063;-52
2021/07/30 06:15:04;;;;;;;8.10;3.90;;;16.60;99.90;;;;;;5048314;28;20112;-53
2021/07/30 06:17:29;;;;;;;9.10;4.00;;;16.60;99.90;;;;;;5048983;28;20032;-52
2021/07/30 06:19:55;;;;;;;16.65;5.10;;;16.70;99.90;;;;;;5048864;28;20041;-53
2021/07/30 06:22:20;;;;;;;9.95;3.83;;;16.70;99.90;;;;;;5049126;28;20514;-55
2021/07/30 06:24:46;;;;;;;7.35;4.40;;;16.80;99.90;;;;;;5048165;28;20016;-55
2021/07/30 06:27:11;;;;;;;9.23;4.32;;;16.80;99.90;;;;;;5049037;28;20027;-55
2021/07/30 06:29:37;;;;;;;13.40;4.00;;;16.80;99.90;;;;;;5048802;28;20500;-55
2021/07/30 06:32:03;;;;;;;11.45;4.53;;;17.00;99.90;;;;;;5049093;28;20037;-55
2021/07/30 06:34:28;;;;;;;14.10;4.65;;;17.00;99.90;;;;;;5048206;28;20025;-55
2021/07/30 06:36:55;;;;;;;11.63;4.63;;;17.10;99.90;;;;;;5048662;28;20078;-55
2021/07/30 06:39:21;;;;;;;10.90;4.80;;;17.20;99.90;;;;;;5048541;28;20017;-56
2021/07/30 06:41:46;;;;;;;7.97;4.00;;;17.30;99.90;;;;;;5048268;28;20032;-55
2021/07/30 06:44:12;;;;;;;11.00;4.35;;;17.40;99.90;;;;;;5048164;28;20151;-57
2021/07/30 06:46:37;;;;;;;9.02;4.40;;;17.50;99.90;;;;;;5048384;28;20565;-55
2021/07/30 06:49:04;;;;;;;13.48;4.75;;;17.60;99.90;;;;;;5048338;28;20039;-55
2021/07/30 06:51:30;;;;;;;12.48;4.10;;;17.60;99.90;;;;;;5048519;28;20033;-55
2021/07/30 06:53:56;;;;;;;9.00;4.45;;;17.70;99.90;;;;;;5047681;28;20475;-55
2021/07/30 06:56:21;;;;;;;11.35;4.82;;;17.90;99.90;;;;;;5048265;28;20033;-55
2021/07/30 06:58:47;;;;;;;12.40;4.30;;;18.00;99.90;;;;;;5048165;28;20032;-55
2021/07/30 07:01:12;;;;;;;12.95;4.20;;;18.00;99.90;;;;;;5048264;28;20526;-55
2021/07/30 07:03:38;;;;;;;8.02;4.18;;;18.10;99.90;;;;;;5047994;28;20108;-49
2021/07/30 07:06:03;;;;;;;11.32;4.70;;;18.20;99.80;;;;;;5048234;28;20111;-50
2021/07/30 07:08:29;;;;;;;9.68;4.63;;;18.20;99.00;;;;;;5048186;28;20391;-48
2021/07/30 07:10:54;;;;;;;9.50;4.15;;;18.30;99.30;;;;;;5048096;28;20056;-49
2021/07/30 07:13:22;;;;;;;10.38;4.43;;;18.40;99.50;;;;;;5047509;28;20029;-51
2021/07/30 07:15:48;;;;;;;9.40;3.85;;;18.50;99.70;;;;;;5048121;28;20108;-51
2021/07/30 07:18:14;;;;;;;11.65;4.13;;;18.60;98.50;;;;;;5048126;28;20107;-49
2021/07/30 07:20:40;;;;;;;9.27;3.88;;;18.70;98.00;;;;;;5046952;28;20021;-49
2021/07/30 07:23:07;;;;;;;14.93;4.65;;;18.80;98.10;;;;;;5048496;28;20104;-49
2021/07/30 07:25:33;;;;;;;9.65;4.30;;;18.90;97.20;;;;;;5047705;28;20059;-48
2021/07/30 07:27:58;;;;;;;8.65;4.15;;;19.00;96.80;;;;;;5048162;28;20079;-46
2021/07/30 07:30:25;;;;;;;12.23;3.85;;;19.20;95.40;;;;;;5048488;28;20026;-47
2021/07/30 07:32:50;;;;;;;7.25;3.92;;;19.30;95.70;;;;;;5048364;28;20039;-48
2021/07/30 07:35:16;;;;;;;8.70;3.80;;;19.50;95.30;;;;;;5046080;28;20020;-46
2021/07/30 07:37:41;;;;;;;11.52;4.25;;;19.70;93.80;;;;;;5048112;28;20025;-46
2021/07/30 07:40:08;;;;;;;10.45;3.80;;;19.80;92.60;;;;;;5048233;28;20024;-45
2021/07/30 07:42:34;;;;;;;9.43;3.72;;;19.90;93.00;;;;;;5046432;28;20115;-46
2021/07/30 07:45:01;;;;;;;6.85;3.20;;;20.00;92.20;;;;;;5047213;28;20120;-46
2021/07/30 07:47:31;;;;;;;11.38;3.72;;;20.10;92.70;;;;;;5047999;28;20063;-47
2021/07/30 07:49:57;;;;;;;5.32;3.22;;;20.10;91.70;;;;;;5047919;28;20070;-46
2021/07/30 07:52:22;;;;;;;12.68;3.97;;;20.20;91.60;;;;;;5047871;28;20040;-48
2021/07/30 07:54:48;;;;;;;5.43;3.40;;;20.10;91.40;;;;;;5050352;28;20032;-46
2021/07/30 07:57:13;;;;;;;8.93;3.65;;;20.20;91.80;;;;;;5051441;28;20025;-46
2021/07/30 07:59:39;;;;;;;11.43;3.80;;;20.40;91.60;;;;;;5051609;28;20028;-46
2021/07/30 08:02:08;;;;;;;5.65;3.30;;;20.60;91.10;;;;;;5051587;28;20329;-46
2021/07/30 08:04:33;;;;;;;6.85;3.42;;;20.70;91.00;;;;;;5050593;28;20033;-46
2021/07/30 08:07:03;;;;;;;8.82;3.88;;;20.90;90.70;;;;;;5051288;28;20029;-47
2021/07/30 08:09:31;;;;;;;11.40;3.80;;;21.00;90.00;;;;;;5051422;28;20033;-46
2021/07/30 08:11:57;;;;;;;8.38;3.22;;;21.10;89.70;;;;;;5051483;28;20029;-46
2021/07/30 08:14:23;;;;;;;9.32;3.30;;;21.30;89.40;;;;;;5051033;28;20086;-46
2021/07/30 08:16:49;;;;;;;8.88;3.47;;;21.40;89.10;;;;;;5050042;28;20036;-47
2021/07/30 08:19:16;;;;;;;7.03;3.13;;;21.70;88.00;;;;;;5051075;28;20040;-49
2021/07/30 08:21:41;;;;;;;7.63;3.65;;;22.00;86.80;;;;;;5051106;28;20044;-46
2021/07/30 08:24:07;;;;;;;15.55;4.57;;;22.30;86.60;;;;;;5050526;28;20025;-48
2021/07/30 08:26:32;;;;;;;7.88;3.15;;;22.20;85.20;;;;;;5050989;28;20040;-48
2021/07/30 08:28:58;;;;;;;4.57;3.03;;;22.30;82.40;;;;;;5051001;28;20031;-47
2021/07/30 08:31:24;;;;;;;6.25;3.55;;;22.50;84.30;;;;;;5050879;28;20025;-46
2021/07/30 08:33:50;;;;;;;8.32;3.35;;;22.90;79.70;;;;;;5050562;28;20035;-47
2021/07/30 08:36:16;;;;;;;6.88;2.88;;;23.10;79.80;;;;;;5050762;28;20029;-47
2021/07/30 08:38:42;;;;;;;7.80;3.47;;;23.70;79.50;;;;;;5050676;28;20036;-48
2021/07/30 08:41:08;;;;;;;7.43;3.25;;;24.80;75.00;;;;;;5050660;28;20111;-47
2021/07/30 08:43:33;;;;;;;10.95;3.38;;;26.10;69.80;;;;;;5049872;28;20029;-50
2021/07/30 08:45:59;;;;;;;6.68;2.63;;;27.10;65.20;;;;;;5050629;28;20032;-48
2021/07/30 08:48:25;;;;;;;9.23;3.08;;;27.10;63.30;;;;;;5050452;28;20033;-51
2021/07/30 08:50:51;;;;;;;5.93;3.03;;;27.00;62.30;;;;;;5050836;28;20025;-49
2021/07/30 08:53:24;;;;;;;8.23;2.70;;;27.10;61.90;;;;;;5050057;28;20102;-49
2021/07/30 08:55:50;;;;;;;8.13;2.92;;;27.50;62.00;;;;;;5050604;28;20100;-50
2021/07/30 08:58:16;;;;;;;6.90;2.67;;;27.80;59.20;;;;;;5050958;28;20040;-49
2021/07/30 09:00:42;;;;;;;8.02;3.22;;;28.40;58.50;;;;;;5049661;28;20029;-51
2021/07/30 09:03:07;;;;;;;7.45;2.90;;;28.70;56.80;;;;;;5049340;28;20025;-48
2021/07/30 09:05:34;;;;;;;7.82;2.83;;;29.50;55.60;;;;;;5049978;28;20471;-50
2021/07/30 09:08:02;;;;;;;8.00;3.72;;;30.20;54.40;;;;;;5049183;28;20025;-51
2021/07/30 09:10:34;;;;;;;7.50;3.20;;;29.90;51.40;;;;;;5050692;28;20017;-50
2021/07/30 09:13:26;;;;;;;6.70;3.00;;;29.10;53.90;;;;;;5049180;28;20498;-48
2021/07/30 09:16:02;;;;;;;8.20;3.35;;;29.50;53.40;;;;;;5049808;28;20024;-49
2021/07/30 09:18:30;;;;;;;5.60;2.50;;;28.90;52.90;;;;;;5049944;28;20105;-49
2021/07/30 09:21:14;;;;;;;8.00;2.90;;;29.40;54.50;;;;;;5050188;28;20025;-50
2021/07/30 09:23:55;;;;;;;6.82;3.08;;;28.70;53.00;;;;;;5049576;28;20398;-50
2021/07/30 09:26:32;;;;;;;8.45;3.17;;;30.10;52.50;;;;;;5049035;28;20116;-49
2021/07/30 09:29:00;;;;;;;6.80;2.38;;;29.80;50.60;;;;;;5049911;28;20064;-51
2021/07/30 09:31:43;;;;;;;5.43;3.20;;;30.00;50.90;;;;;;5050032;28;20029;-51
2021/07/30 09:34:16;;;;;;;5.97;2.88;;;30.20;49.60;;;;;;5049241;28;20075;-52
2021/07/30 09:36:52;;;;;;;4.75;2.65;;;30.50;51.70;;;;;;5049650;28;20040;-52
2021/07/30 09:39:21;;;;;;;6.88;3.10;;;31.10;50.70;;;;;;5049540;28;20040;-51
2021/07/30 09:42:00;;;;;;;5.93;2.55;;;31.20;49.50;;;;;;5048411;28;20079;-52
2021/07/30 09:44:26;;;;;;;7.45;2.80;;;31.20;48.90;;;;;;5049464;28;20021;-48
2021/07/30 09:47:06;;;;;;;7.90;2.88;;;30.20;50.10;;;;;;5049656;28;20178;-51
2021/07/30 09:49:36;;;;;;;7.20;2.70;;;30.50;51.00;;;;;;5049554;28;20104;-49
2021/07/30 09:52:02;;;;;;;5.32;2.80;;;31.20;51.60;;;;;;5049772;28;20036;-51
2021/07/30 09:54:29;;;;;;;5.63;2.95;;;32.40;48.10;;;;;;5048913;28;20025;-51
2021/07/30 09:56:54;;;;;;;5.40;2.50;;;32.50;48.00;;;;;;5049440;28;20036;-51
2021/07/30 09:59:21;;;;;;;6.75;2.95;;;32.60;46.10;;;;;;5049570;28;20033;-51
2021/07/30 10:01:47;;;;;;;7.28;2.70;;;32.00;46.20;;;;;;5049408;28;20025;-49
2021/07/30 10:04:12;;;;;;;8.25;2.65;;;32.70;48.20;;;;;;5048500;28;20032;-52
2021/07/30 10:06:38;;;;;;;7.93;3.03;;;32.60;44.80;;;;;;5049395;28;20029;-49
2021/07/30 10:09:04;;;;;;;6.32;2.70;;;33.20;45.60;;;;;;5049503;28;20048;-51
2021/07/30 10:11:37;;;;;;;7.60;2.97;;;32.20;45.50;;;;;;5049756;28;20033;-50
2021/07/30 10:14:04;;;;;;;6.63;2.80;;;30.70;47.70;;;;;;5048962;28;20106;-50
2021/07/30 10:16:35;;;;;;;9.25;3.30;;;31.00;49.70;;;;;;5048444;28;20041;-48
2021/07/30 10:19:01;;;;;;;7.57;2.75;;;31.30;49.30;;;;;;5048966;28;20037;-51
2021/07/30 10:21:27;;;;;;;4.30;2.35;;;30.90;49.30;;;;;;5048931;28;20334;-50
2021/07/30 10:23:53;;;;;;;9.15;3.45;;;31.40;49.80;;;;;;5048385;28;20533;-51
2021/07/30 10:26:26;;;;;;;6.57;2.30;;;32.00;48.50;;;;;;5048939;28;20111;-52
2021/07/30 10:28:58;;;;;;;7.13;2.45;;;33.00;46.90;;;;;;5048750;28;20021;-51
2021/07/30 10:31:48;;;;;;;5.78;2.80;;;32.90;45.70;;;;;;5048591;28;20021;-49
2021/07/30 10:34:14;;;;;;;8.95;3.08;;;32.40;45.00;;;;;;5046742;28;20036;-52
2021/07/30 10:36:39;;;;;;;5.13;2.60;;;31.00;45.70;;;;;;5048611;28;20171;-49
2021/07/30 10:39:11;;;;;;;5.22;2.88;;;30.90;47.30;;;;;;5047280;28;20021;-51
2021/07/30 10:41:39;;;;;;;7.38;3.00;;;29.90;49.10;;;;;;5048706;28;20017;-50
2021/07/30 10:44:06;;;;;;;8.50;2.65;;;30.10;49.40;;;;;;5047845;28;20487;-50
2021/07/30 10:46:32;;;;;;;8.77;2.75;;;30.00;49.10;;;;;;5048808;28;20447;-49
2021/07/30 10:48:58;;;;;;;4.63;2.60;;;30.20;49.90;;;;;;5048858;28;20288;-51
2021/07/30 10:51:25;;;;;;;5.05;2.50;;;29.70;50.80;;;;;;5048465;28;20502;-51
2021/07/30 10:53:57;;;;;;;10.65;2.60;;;29.40;49.50;;;;;;5047849;28;20029;-51
2021/07/30 10:56:22;;;;;;;6.90;2.40;;;29.80;50.20;;;;;;5048277;28;20032;-51
2021/07/30 10:58:53;;;;;;;8.00;3.03;;;30.00;50.20;;;;;;5046906;28;20383;-48
2021/07/30 11:01:21;;;;;;;10.10;3.42;;;29.60;49.90;;;;;;5048553;28;20021;-50
2021/07/30 11:03:52;;;;;;;5.47;2.50;;;29.70;51.60;;;;;;5047603;28;20071;-51
2021/07/30 11:06:26;;;;;;;7.35;2.90;;;30.30;52.70;;;;;;5048311;28;20029;-49
2021/07/30 11:09:04;;;;;;;5.68;2.50;;;30.90;48.40;;;;;;5048565;28;20033;-49
2021/07/30 11:11:39;;;;;;;7.57;2.53;;;31.60;48.70;;;;;;5048267;28;20360;-51
2021/07/30 11:14:14;;;;;;;4.22;2.30;;;32.60;46.70;;;;;;5047616;28;20025;-51
2021/07/30 11:16:40;;;;;;;6.38;2.70;;;32.20;47.90;;;;;;5048273;28;20482;-51
2021/07/30 11:19:06;;;;;;;6.20;2.53;;;32.20;48.00;;;;;;5048308;28;20094;-50
2021/07/30 11:21:32;;;;;;;6.53;2.42;;;32.50;47.30;;;;;;5048063;28;20028;-48
2021/07/30 11:23:59;;;;;;;4.50;2.05;;;31.60;46.80;;;;;;5047490;28;20029;-51
2021/07/30 11:26:25;;;;;;;7.72;2.17;;;31.10;49.00;;;;;;5048113;28;20028;-48
2021/07/30 11:28:52;;;;;;;6.30;2.10;;;31.40;48.00;;;;;;5051318;28;20067;-50
2021/07/30 11:31:18;;;;;;;9.85;2.50;;;31.50;48.10;;;;;;5052504;28;20110;-48
2021/07/30 11:33:44;;;;;;;6.10;2.03;;;30.70;48.10;;;;;;5051391;28;20075;-50
2021/07/30 11:36:12;;;;;;;5.07;2.40;;;30.40;47.80;;;;;;5052011;28;20033;-51
2021/07/30 11:38:54;;;;;;;4.20;2.00;;;31.40;48.60;;;;;;5052187;28;20040;-51
2021/07/30 11:41:22;;;;;;;7.28;2.20;;;31.40;46.00;;;;;;5052293;28;20589;-51
2021/07/30 11:44:01;;;;;;;6.18;2.35;;;30.80;47.60;;;;;;5051290;28;20020;-52
2021/07/30 11:46:28;;;;;;;3.08;1.90;;;31.10;50.00;;;;;;5052017;28;20025;-50
2021/07/30 11:48:54;;;;;;;4.85;2.05;;;31.90;47.20;;;;;;5052062;28;20029;-51
2021/07/30 11:51:21;;;;;;;3.70;1.95;;;31.40;47.80;;;;;;5051990;28;20186;-50
2021/07/30 11:53:48;;;;;;;10.02;3.17;;;31.00;47.00;;;;;;5051178;28;20032;-48
2021/07/30 11:56:17;;;;;;;5.97;2.20;;;31.50;46.80;;;;;;5051933;28;20489;-51
2021/07/30 11:58:59;;;;;;;5.60;1.85;;;31.10;46.70;;;;;;5051667;28;20484;-51
2021/07/30 12:01:25;;;;;;;6.60;2.47;;;31.30;48.40;;;;;;5051627;28;20032;-51
2021/07/30 12:04:07;;;;;;;5.10;2.25;;;31.30;48.00;;;;;;5050965;28;20074;-51
2021/07/30 12:06:46;;;;;;;6.82;2.13;;;31.20;49.10;;;;;;5051497;28;20024;-51
2021/07/30 12:09:13;;;;;;;6.10;2.38;;;31.90;48.70;;;;;;5051210;28;20509;-50
2021/07/30 12:11:44;;;;;;;6.47;2.05;;;31.70;49.00;;;;;;5051546;28;20037;-50
2021/07/30 12:14:10;;;;;;;4.90;2.20;;;32.00;45.70;;;;;;5050833;28;20033;-49
2021/07/30 12:16:39;;;;;;;9.57;2.63;;;30.60;46.60;;;;;;5050132;28;20115;-48
2021/07/30 12:19:05;;;;;;;3.45;2.05;;;30.20;48.80;;;;;;5051292;28;20037;-51
2021/07/30 12:21:30;;;;;;;4.03;2.20;;;30.40;50.40;;;;;;5051423;28;20032;-48
2021/07/30 12:24:06;;;;;;;5.60;2.08;;;30.40;51.00;;;;;;5051001;28;20548;-50
2021/07/30 12:26:33;;;;;;;7.47;1.88;;;30.90;47.80;;;;;;5051219;28;20025;-51
2021/07/30 12:28:59;;;;;;;5.72;2.03;;;30.60;48.90;;;;;;5051114;28;20024;-51
2021/07/30 12:31:25;;;;;;;5.82;2.30;;;30.60;49.40;;;;;;5051204;28;20506;-50
2021/07/30 12:34:17;;;;;;;2.78;1.77;;;30.50;48.80;;;;;;5050401;28;20033;-48
2021/07/30 12:36:43;;;;;;;5.70;2.28;;;29.90;48.80;;;;;;5050944;28;20025;-50
2021/07/30 12:39:11;;;;;;;4.80;2.05;;;29.90;48.60;;;;;;5049885;28;20491;-51
2021/07/30 12:41:36;;;;;;;9.15;2.25;;;29.10;49.60;;;;;;5050753;28;20017;-48